sensor_id;sensor_type;location;lat;lon;timestamp;P1;P2;P0
44312;PMS5003;38833;51.142;-0.974;2023-12-14T00:02:17;0;0;
44312;PMS5003;38833;51.142;-0.974;2023-12-14T00:04:50;0;0;
44312;PMS5003;38833;51.142;-0.974;2023-12-14T00:07:23;4;0;
44312;PMS5003;38833;51.142;-0.974;2023-12-14T00:09:57;2;1;
44312;PMS5003;38833;51.142;-0.974;2023-12-14T00:12:30;1;1;
44312;PMS5003;38833;51.142;-0.974;2023-12-14T00:15:04;1;0;
44312;PMS5003;38833;51.142;-0.974;2023-12-14T00:17:39;1;1;
44312;PMS5003;38833;51.142;-0.974;2023-12-14T00:20:12;0;0;
44312;PMS5003;38833;51.142;-0.974;2023-12-14T00:22:46;0;0;
44312;PMS5003;38833;51.142;-0.974;2023-12-14T00:25:19;2;1;
44312;PMS5003;38833;51.142;-0.974;2023-12-14T00:27:53;0;0;
44312;PMS5003;38833;51.142;-0.974;2023-12-14T00:30:26;0;0;
44312;PMS5003;38833;51.142;-0.974;2023-12-14T00:32:59;0;0;
44312;PMS5003;38833;51.142;-0.974;2023-12-14T00:35:33;1;1;
44312;PMS5003;38833;51.142;-0.974;2023-12-14T00:38:06;3;0;
44312;PMS5003;38833;51.142;-0.974;2023-12-14T00:40:39;0;0;
44312;PMS5003;38833;51.142;-0.974;2023-12-14T00:43:13;2;1;
44312;PMS5003;38833;51.142;-0.974;2023-12-14T00:45:47;0;0;
44312;PMS5003;38833;51.142;-0.974;2023-12-14T00:48:20;3;0;
44312;PMS5003;38833;51.142;-0.974;2023-12-14T00:50:54;0;0;
44312;PMS5003;38833;51.142;-0.974;2023-12-14T00:53:27;1;1;
44312;PMS5003;38833;51.142;-0.974;2023-12-14T00:56:00;13;13;
44312;PMS5003;38833;51.142;-0.974;2023-12-14T00:58:34;31;25;
44312;PMS5003;38833;51.142;-0.974;2023-12-14T01:01:07;23;23;
44312;PMS5003;38833;51.142;-0.974;2023-12-14T01:03:40;22;21;
44312;PMS5003;38833;51.142;-0.974;2023-12-14T01:06:14;18;18;
44312;PMS5003;38833;51.142;-0.974;2023-12-14T01:08:48;20;19;
44312;PMS5003;38833;51.142;-0.974;2023-12-14T01:11:21;18;15;
44312;PMS5003;38833;51.142;-0.974;2023-12-14T01:13:54;19;16;
44312;PMS5003;38833;51.142;-0.974;2023-12-14T01:16:28;18;17;
44312;PMS5003;38833;51.142;-0.974;2023-12-14T01:19:01;21;17;
44312;PMS5003;38833;51.142;-0.974;2023-12-14T01:21:34;16;15;
44312;PMS5003;38833;51.142;-0.974;2023-12-14T01:24:08;16;14;
44312;PMS5003;38833;51.142;-0.974;2023-12-14T01:26:41;39;28;
44312;PMS5003;38833;51.142;-0.974;2023-12-14T01:29:15;39;38;
44312;PMS5003;38833;51.142;-0.974;2023-12-14T01:31:48;38;36;
44312;PMS5003;38833;51.142;-0.974;2023-12-14T01:34:21;40;36;
44312;PMS5003;38833;51.142;-0.974;2023-12-14T01:36:54;43;35;
44312;PMS5003;38833;51.142;-0.974;2023-12-14T01:39:28;41;35;
44312;PMS5003;38833;51.142;-0.974;2023-12-14T01:42:01;33;32;
44312;PMS5003;38833;51.142;-0.974;2023-12-14T01:44:35;35;33;
44312;PMS5003;38833;51.142;-0.974;2023-12-14T01:47:08;29;29;
44312;PMS5003;38833;51.142;-0.974;2023-12-14T01:49:41;38;27;
44312;PMS5003;38833;51.142;-0.974;2023-12-14T01:52:15;28;24;
44312;PMS5003;38833;51.142;-0.974;2023-12-14T01:54:48;25;24;
44312;PMS5003;38833;51.142;-0.974;2023-12-14T01:57:21;28;25;
44312;PMS5003;38833;51.142;-0.974;2023-12-14T01:59:55;26;24;
44312;PMS5003;38833;51.142;-0.974;2023-12-14T02:02:28;22;22;
44312;PMS5003;38833;51.142;-0.974;2023-12-14T02:05:02;23;23;
44312;PMS5003;38833;51.142;-0.974;2023-12-14T02:07:35;20;18;
44312;PMS5003;38833;51.142;-0.974;2023-12-14T02:10:09;25;21;
44312;PMS5003;38833;51.142;-0.974;2023-12-14T02:12:42;25;20;
44312;PMS5003;38833;51.142;-0.974;2023-12-14T02:15:16;23;19;
44312;PMS5003;38833;51.142;-0.974;2023-12-14T02:17:49;22;18;
44312;PMS5003;38833;51.142;-0.974;2023-12-14T02:20:22;18;18;
44312;PMS5003;38833;51.142;-0.974;2023-12-14T02:22:56;21;16;
44312;PMS5003;38833;51.142;-0.974;2023-12-14T02:25:30;16;16;
44312;PMS5003;38833;51.142;-0.974;2023-12-14T02:28:03;18;18;
44312;PMS5003;38833;51.142;-0.974;2023-12-14T02:30:36;14;14;
44312;PMS5003;38833;51.142;-0.974;2023-12-14T02:33:10;15;15;
44312;PMS5003;38833;51.142;-0.974;2023-12-14T02:35:43;16;16;
44312;PMS5003;38833;51.142;-0.974;2023-12-14T02:38:16;16;14;
44312;PMS5003;38833;51.142;-0.974;2023-12-14T02:40:50;12;11;
44312;PMS5003;38833;51.142;-0.974;2023-12-14T02:43:23;13;10;
44312;PMS5003;38833;51.142;-0.974;2023-12-14T02:45:57;11;9;
44312;PMS5003;38833;51.142;-0.974;2023-12-14T02:48:30;12;11;
44312;PMS5003;38833;51.142;-0.974;2023-12-14T02:51:04;10;10;
44312;PMS5003;38833;51.142;-0.974;2023-12-14T02:53:37;7;7;
44312;PMS5003;38833;51.142;-0.974;2023-12-14T02:56:11;17;11;
44312;PMS5003;38833;51.142;-0.974;2023-12-14T02:58:44;11;10;
44312;PMS5003;38833;51.142;-0.974;2023-12-14T03:01:18;11;10;
44312;PMS5003;38833;51.142;-0.974;2023-12-14T03:03:51;10;10;
44312;PMS5003;38833;51.142;-0.974;2023-12-14T03:06:25;10;8;
44312;PMS5003;38833;51.142;-0.974;2023-12-14T03:08:58;14;9;
44312;PMS5003;38833;51.142;-0.974;2023-12-14T03:11:32;9;9;
44312;PMS5003;38833;51.142;-0.974;2023-12-14T03:14:05;8;7;
44312;PMS5003;38833;51.142;-0.974;2023-12-14T03:16:39;17;7;
44312;PMS5003;38833;51.142;-0.974;2023-12-14T03:19:12;12;9;
44312;PMS5003;38833;51.142;-0.974;2023-12-14T03:21:46;10;8;
44312;PMS5003;38833;51.142;-0.974;2023-12-14T03:24:19;7;7;
44312;PMS5003;38833;51.142;-0.974;2023-12-14T03:26:52;9;8;
44312;PMS5003;38833;51.142;-0.974;2023-12-14T03:29:26;6;6;
44312;PMS5003;38833;51.142;-0.974;2023-12-14T03:32:00;10;8;
44312;PMS5003;38833;51.142;-0.974;2023-12-14T03:34:33;7;7;
44312;PMS5003;38833;51.142;-0.974;2023-12-14T03:37:07;6;6;
44312;PMS5003;38833;51.142;-0.974;2023-12-14T03:39:40;6;6;
44312;PMS5003;38833;51.142;-0.974;2023-12-14T03:42:13;4;4;
44312;PMS5003;38833;51.142;-0.974;2023-12-14T03:44:47;6;6;
44312;PMS5003;38833;51.142;-0.974;2023-12-14T03:47:20;6;4;
44312;PMS5003;38833;51.142;-0.974;2023-12-14T03:49:53;6;4;
44312;PMS5003;38833;51.142;-0.974;2023-12-14T03:52:27;5;5;
44312;PMS5003;38833;51.142;-0.974;2023-12-14T03:55:00;6;5;
44312;PMS5003;38833;51.142;-0.974;2023-12-14T03:57:34;5;5;
44312;PMS5003;38833;51.142;-0.974;2023-12-14T04:00:09;6;5;
44312;PMS5003;38833;51.142;-0.974;2023-12-14T04:02:44;6;6;
44312;PMS5003;38833;51.142;-0.974;2023-12-14T04:05:17;7;5;
44312;PMS5003;38833;51.142;-0.974;2023-12-14T04:07:50;4;4;
44312;PMS5003;38833;51.142;-0.974;2023-12-14T04:10:24;5;4;
44312;PMS5003;38833;51.142;-0.974;2023-12-14T04:12:57;6;5;
44312;PMS5003;38833;51.142;-0.974;2023-12-14T04:15:30;6;5;
44312;PMS5003;38833;51.142;-0.974;2023-12-14T04:18:03;7;5;
44312;PMS5003;38833;51.142;-0.974;2023-12-14T04:20:39;5;2;
44312;PMS5003;38833;51.142;-0.974;2023-12-14T04:23:12;4;4;
44312;PMS5003;38833;51.142;-0.974;2023-12-14T04:25:46;5;5;
44312;PMS5003;38833;51.142;-0.974;2023-12-14T04:28:19;3;3;
44312;PMS5003;38833;51.142;-0.974;2023-12-14T04:30:52;4;4;
44312;PMS5003;38833;51.142;-0.974;2023-12-14T04:33:25;5;4;
44312;PMS5003;38833;51.142;-0.974;2023-12-14T04:35:59;3;3;
44312;PMS5003;38833;51.142;-0.974;2023-12-14T04:38:32;3;3;
44312;PMS5003;38833;51.142;-0.974;2023-12-14T04:41:05;5;3;
44312;PMS5003;38833;51.142;-0.974;2023-12-14T04:43:39;3;3;
44312;PMS5003;38833;51.142;-0.974;2023-12-14T04:46:12;4;4;
44312;PMS5003;38833;51.142;-0.974;2023-12-14T04:48:45;3;3;
44312;PMS5003;38833;51.142;-0.974;2023-12-14T04:51:19;8;4;
44312;PMS5003;38833;51.142;-0.974;2023-12-14T04:53:53;3;3;
44312;PMS5003;38833;51.142;-0.974;2023-12-14T04:56:26;6;4;
44312;PMS5003;38833;51.142;-0.974;2023-12-14T04:59:00;5;4;
44312;PMS5003;38833;51.142;-0.974;2023-12-14T05:01:33;5;4;
44312;PMS5003;38833;51.142;-0.974;2023-12-14T05:04:06;3;2;
44312;PMS5003;38833;51.142;-0.974;2023-12-14T05:06:39;3;3;
44312;PMS5003;38833;51.142;-0.974;2023-12-14T05:09:13;6;2;
44312;PMS5003;38833;51.142;-0.974;2023-12-14T05:11:47;3;2;
44312;PMS5003;38833;51.142;-0.974;2023-12-14T05:14:21;4;3;
44312;PMS5003;38833;51.142;-0.974;2023-12-14T05:16:54;3;3;
44312;PMS5003;38833;51.142;-0.974;2023-12-14T05:19:27;6;3;
44312;PMS5003;38833;51.142;-0.974;2023-12-14T05:22:01;2;2;
44312;PMS5003;38833;51.142;-0.974;2023-12-14T05:24:34;3;3;
44312;PMS5003;38833;51.142;-0.974;2023-12-14T05:27:08;4;4;
44312;PMS5003;38833;51.142;-0.974;2023-12-14T05:29:41;3;2;
44312;PMS5003;38833;51.142;-0.974;2023-12-14T05:32:14;1;1;
44312;PMS5003;38833;51.142;-0.974;2023-12-14T05:34:48;2;2;
44312;PMS5003;38833;51.142;-0.974;2023-12-14T05:37:21;2;2;
44312;PMS5003;38833;51.142;-0.974;2023-12-14T05:39:55;3;2;
44312;PMS5003;38833;51.142;-0.974;2023-12-14T05:42:28;3;3;
44312;PMS5003;38833;51.142;-0.974;2023-12-14T05:45:01;2;1;
44312;PMS5003;38833;51.142;-0.974;2023-12-14T05:47:35;4;3;
44312;PMS5003;38833;51.142;-0.974;2023-12-14T05:50:08;1;1;
44312;PMS5003;38833;51.142;-0.974;2023-12-14T05:52:42;4;3;
44312;PMS5003;38833;51.142;-0.974;2023-12-14T05:55:15;2;2;
44312;PMS5003;38833;51.142;-0.974;2023-12-14T05:57:48;2;2;
44312;PMS5003;38833;51.142;-0.974;2023-12-14T06:00:22;3;2;
44312;PMS5003;38833;51.142;-0.974;2023-12-14T06:02:56;1;1;
44312;PMS5003;38833;51.142;-0.974;2023-12-14T06:05:29;2;0;
44312;PMS5003;38833;51.142;-0.974;2023-12-14T06:08:03;3;1;
44312;PMS5003;38833;51.142;-0.974;2023-12-14T06:10:38;4;2;
44312;PMS5003;38833;51.142;-0.974;2023-12-14T06:13:11;4;3;
44312;PMS5003;38833;51.142;-0.974;2023-12-14T06:15:44;2;2;
44312;PMS5003;38833;51.142;-0.974;2023-12-14T06:18:18;3;2;
44312;PMS5003;38833;51.142;-0.974;2023-12-14T06:20:51;2;1;
44312;PMS5003;38833;51.142;-0.974;2023-12-14T06:23:24;1;1;
44312;PMS5003;38833;51.142;-0.974;2023-12-14T06:25:58;2;2;
44312;PMS5003;38833;51.142;-0.974;2023-12-14T06:28:31;5;1;
44312;PMS5003;38833;51.142;-0.974;2023-12-14T06:31:05;3;2;
44312;PMS5003;38833;51.142;-0.974;2023-12-14T06:33:38;2;2;
44312;PMS5003;38833;51.142;-0.974;2023-12-14T06:36:11;1;1;
44312;PMS5003;38833;51.142;-0.974;2023-12-14T06:38:45;1;1;
44312;PMS5003;38833;51.142;-0.974;2023-12-14T06:41:18;2;2;
44312;PMS5003;38833;51.142;-0.974;2023-12-14T06:43:52;0;0;
44312;PMS5003;38833;51.142;-0.974;2023-12-14T06:46:26;1;1;
44312;PMS5003;38833;51.142;-0.974;2023-12-14T06:49:00;1;0;
44312;PMS5003;38833;51.142;-0.974;2023-12-14T06:51:33;5;2;
44312;PMS5003;38833;51.142;-0.974;2023-12-14T06:54:06;0;0;
44312;PMS5003;38833;51.142;-0.974;2023-12-14T06:56:40;1;1;
44312;PMS5003;38833;51.142;-0.974;2023-12-14T06:59:13;3;1;
44312;PMS5003;38833;51.142;-0.974;2023-12-14T07:01:47;1;1;
44312;PMS5003;38833;51.142;-0.974;2023-12-14T07:04:21;2;2;
44312;PMS5003;38833;51.142;-0.974;2023-12-14T07:06:54;1;1;
44312;PMS5003;38833;51.142;-0.974;2023-12-14T07:09:28;2;2;
44312;PMS5003;38833;51.142;-0.974;2023-12-14T07:12:11;0;0;
44312;PMS5003;38833;51.142;-0.974;2023-12-14T07:14:49;2;2;
44312;PMS5003;38833;51.142;-0.974;2023-12-14T07:17:23;2;1;
44312;PMS5003;38833;51.142;-0.974;2023-12-14T07:19:56;3;2;
44312;PMS5003;38833;51.142;-0.974;2023-12-14T07:22:29;1;1;
44312;PMS5003;38833;51.142;-0.974;2023-12-14T07:25:03;13;5;
44312;PMS5003;38833;51.142;-0.974;2023-12-14T07:27:37;21;14;
44312;PMS5003;38833;51.142;-0.974;2023-12-14T07:30:10;29;16;
44312;PMS5003;38833;51.142;-0.974;2023-12-14T07:32:44;24;17;
44312;PMS5003;38833;51.142;-0.974;2023-12-14T07:35:17;19;16;
44312;PMS5003;38833;51.142;-0.974;2023-12-14T07:37:51;17;13;
44312;PMS5003;38833;51.142;-0.974;2023-12-14T07:40:24;22;17;
44312;PMS5003;38833;51.142;-0.974;2023-12-14T07:42:57;30;14;
44312;PMS5003;38833;51.142;-0.974;2023-12-14T07:45:31;23;15;
44312;PMS5003;38833;51.142;-0.974;2023-12-14T07:48:04;22;16;
44312;PMS5003;38833;51.142;-0.974;2023-12-14T07:50:38;18;15;
44312;PMS5003;38833;51.142;-0.974;2023-12-14T07:53:11;19;13;
44312;PMS5003;38833;51.142;-0.974;2023-12-14T07:55:44;10;10;
44312;PMS5003;38833;51.142;-0.974;2023-12-14T07:58:18;14;11;
44312;PMS5003;38833;51.142;-0.974;2023-12-14T08:00:51;15;12;
44312;PMS5003;38833;51.142;-0.974;2023-12-14T08:03:25;23;12;
44312;PMS5003;38833;51.142;-0.974;2023-12-14T08:05:58;14;10;
44312;PMS5003;38833;51.142;-0.974;2023-12-14T08:08:32;20;8;
44312;PMS5003;38833;51.142;-0.974;2023-12-14T08:11:05;14;10;
44312;PMS5003;38833;51.142;-0.974;2023-12-14T08:13:39;19;11;
44312;PMS5003;38833;51.142;-0.974;2023-12-14T08:16:12;11;7;
44312;PMS5003;38833;51.142;-0.974;2023-12-14T08:18:45;10;8;
44312;PMS5003;38833;51.142;-0.974;2023-12-14T08:21:19;11;6;
44312;PMS5003;38833;51.142;-0.974;2023-12-14T08:23:52;11;7;
44312;PMS5003;38833;51.142;-0.974;2023-12-14T08:26:26;13;8;
44312;PMS5003;38833;51.142;-0.974;2023-12-14T08:28:59;7;7;
44312;PMS5003;38833;51.142;-0.974;2023-12-14T08:31:33;15;6;
44312;PMS5003;38833;51.142;-0.974;2023-12-14T08:34:07;7;5;
44312;PMS5003;38833;51.142;-0.974;2023-12-14T08:36:40;7;7;
44312;PMS5003;38833;51.142;-0.974;2023-12-14T08:39:14;9;5;
44312;PMS5003;38833;51.142;-0.974;2023-12-14T08:41:47;7;5;
44312;PMS5003;38833;51.142;-0.974;2023-12-14T08:44:21;9;6;
44312;PMS5003;38833;51.142;-0.974;2023-12-14T08:46:54;7;5;
44312;PMS5003;38833;51.142;-0.974;2023-12-14T08:49:27;12;6;
44312;PMS5003;38833;51.142;-0.974;2023-12-14T08:52:00;8;6;
44312;PMS5003;38833;51.142;-0.974;2023-12-14T08:54:34;9;5;
44312;PMS5003;38833;51.142;-0.974;2023-12-14T08:57:07;8;5;
44312;PMS5003;38833;51.142;-0.974;2023-12-14T08:59:41;5;4;
44312;PMS5003;38833;51.142;-0.974;2023-12-14T09:02:15;9;7;
44312;PMS5003;38833;51.142;-0.974;2023-12-14T09:04:48;13;7;
44312;PMS5003;38833;51.142;-0.974;2023-12-14T09:07:22;8;3;
44312;PMS5003;38833;51.142;-0.974;2023-12-14T09:09:55;8;4;
44312;PMS5003;38833;51.142;-0.974;2023-12-14T09:12:28;8;8;
44312;PMS5003;38833;51.142;-0.974;2023-12-14T09:15:02;9;6;
44312;PMS5003;38833;51.142;-0.974;2023-12-14T09:17:36;12;4;
44312;PMS5003;38833;51.142;-0.974;2023-12-14T09:20:09;7;6;
44312;PMS5003;38833;51.142;-0.974;2023-12-14T09:22:43;11;7;
44312;PMS5003;38833;51.142;-0.974;2023-12-14T09:25:17;7;6;
44312;PMS5003;38833;51.142;-0.974;2023-12-14T09:27:50;8;8;
44312;PMS5003;38833;51.142;-0.974;2023-12-14T09:30:24;7;7;
44312;PMS5003;38833;51.142;-0.974;2023-12-14T09:32:57;10;7;
44312;PMS5003;38833;51.142;-0.974;2023-12-14T09:35:31;11;8;
44312;PMS5003;38833;51.142;-0.974;2023-12-14T09:38:05;9;9;
44312;PMS5003;38833;51.142;-0.974;2023-12-14T09:40:39;11;5;
44312;PMS5003;38833;51.142;-0.974;2023-12-14T09:43:14;10;7;
44312;PMS5003;38833;51.142;-0.974;2023-12-14T09:45:47;7;7;
44312;PMS5003;38833;51.142;-0.974;2023-12-14T09:48:22;9;6;
44312;PMS5003;38833;51.142;-0.974;2023-12-14T09:50:57;6;6;
44312;PMS5003;38833;51.142;-0.974;2023-12-14T09:53:31;7;6;
44312;PMS5003;38833;51.142;-0.974;2023-12-14T09:56:05;6;6;
44312;PMS5003;38833;51.142;-0.974;2023-12-14T09:58:39;7;5;
44312;PMS5003;38833;51.142;-0.974;2023-12-14T10:01:25;8;6;
44312;PMS5003;38833;51.142;-0.974;2023-12-14T10:04:07;8;6;
44312;PMS5003;38833;51.142;-0.974;2023-12-14T10:06:43;7;5;
44312;PMS5003;38833;51.142;-0.974;2023-12-14T10:09:22;8;5;
44312;PMS5003;38833;51.142;-0.974;2023-12-14T10:12:02;8;6;
44312;PMS5003;38833;51.142;-0.974;2023-12-14T10:14:36;10;7;
44312;PMS5003;38833;51.142;-0.974;2023-12-14T10:17:14;3;3;
44312;PMS5003;38833;51.142;-0.974;2023-12-14T10:19:50;5;3;
44312;PMS5003;38833;51.142;-0.974;2023-12-14T10:22:23;5;5;
44312;PMS5003;38833;51.142;-0.974;2023-12-14T10:25:00;5;5;
44312;PMS5003;38833;51.142;-0.974;2023-12-14T10:27:34;4;4;
44312;PMS5003;38833;51.142;-0.974;2023-12-14T10:30:10;11;8;
44312;PMS5003;38833;51.142;-0.974;2023-12-14T10:32:45;10;6;
44312;PMS5003;38833;51.142;-0.974;2023-12-14T10:35:20;7;4;
44312;PMS5003;38833;51.142;-0.974;2023-12-14T10:37:53;8;5;
44312;PMS5003;38833;51.142;-0.974;2023-12-14T10:40:30;5;4;
44312;PMS5003;38833;51.142;-0.974;2023-12-14T10:43:04;5;4;
44312;PMS5003;38833;51.142;-0.974;2023-12-14T10:45:38;6;5;
44312;PMS5003;38833;51.142;-0.974;2023-12-14T10:48:15;5;5;
44312;PMS5003;38833;51.142;-0.974;2023-12-14T10:50:50;3;3;
44312;PMS5003;38833;51.142;-0.974;2023-12-14T10:53:26;6;6;
44312;PMS5003;38833;51.142;-0.974;2023-12-14T10:55:59;7;4;
44312;PMS5003;38833;51.142;-0.974;2023-12-14T10:58:53;8;4;
44312;PMS5003;38833;51.142;-0.974;2023-12-14T11:01:27;6;4;
44312;PMS5003;38833;51.142;-0.974;2023-12-14T11:04:05;6;5;
44312;PMS5003;38833;51.142;-0.974;2023-12-14T11:06:39;5;4;
44312;PMS5003;38833;51.142;-0.974;2023-12-14T11:09:12;6;4;
44312;PMS5003;38833;51.142;-0.974;2023-12-14T11:11:54;3;3;
44312;PMS5003;38833;51.142;-0.974;2023-12-14T11:14:29;5;5;
44312;PMS5003;38833;51.142;-0.974;2023-12-14T11:17:05;7;4;
44312;PMS5003;38833;51.142;-0.974;2023-12-14T11:19:39;3;3;
44312;PMS5003;38833;51.142;-0.974;2023-12-14T11:22:13;6;4;
44312;PMS5003;38833;51.142;-0.974;2023-12-14T11:24:56;4;2;
44312;PMS5003;38833;51.142;-0.974;2023-12-14T11:27:30;3;3;
44312;PMS5003;38833;51.142;-0.974;2023-12-14T11:30:04;2;2;
44312;PMS5003;38833;51.142;-0.974;2023-12-14T11:32:39;3;3;
44312;PMS5003;38833;51.142;-0.974;2023-12-14T11:35:12;8;4;
44312;PMS5003;38833;51.142;-0.974;2023-12-14T11:37:45;4;2;
44312;PMS5003;38833;51.142;-0.974;2023-12-14T11:40:19;5;4;
44312;PMS5003;38833;51.142;-0.974;2023-12-14T11:42:57;3;3;
44312;PMS5003;38833;51.142;-0.974;2023-12-14T11:45:31;8;2;
44312;PMS5003;38833;51.142;-0.974;2023-12-14T11:48:04;5;4;
44312;PMS5003;38833;51.142;-0.974;2023-12-14T11:50:39;4;4;
44312;PMS5003;38833;51.142;-0.974;2023-12-14T11:53:14;1;1;
44312;PMS5003;38833;51.142;-0.974;2023-12-14T11:55:47;5;3;
44312;PMS5003;38833;51.142;-0.974;2023-12-14T11:58:21;6;4;
44312;PMS5003;38833;51.142;-0.974;2023-12-14T12:00:59;5;3;
44312;PMS5003;38833;51.142;-0.974;2023-12-14T12:03:45;3;3;
44312;PMS5003;38833;51.142;-0.974;2023-12-14T12:06:19;4;4;
44312;PMS5003;38833;51.142;-0.974;2023-12-14T12:08:53;2;2;
44312;PMS5003;38833;51.142;-0.974;2023-12-14T12:11:27;6;5;
44312;PMS5003;38833;51.142;-0.974;2023-12-14T12:14:00;3;3;
44312;PMS5003;38833;51.142;-0.974;2023-12-14T12:16:33;5;3;
44312;PMS5003;38833;51.142;-0.974;2023-12-14T12:19:07;3;3;
44312;PMS5003;38833;51.142;-0.974;2023-12-14T12:21:41;3;3;
44312;PMS5003;38833;51.142;-0.974;2023-12-14T12:24:14;4;4;
44312;PMS5003;38833;51.142;-0.974;2023-12-14T12:26:47;4;4;
44312;PMS5003;38833;51.142;-0.974;2023-12-14T12:29:21;4;4;
44312;PMS5003;38833;51.142;-0.974;2023-12-14T12:31:54;3;3;
44312;PMS5003;38833;51.142;-0.974;2023-12-14T12:34:28;7;2;
44312;PMS5003;38833;51.142;-0.974;2023-12-14T12:37:01;2;2;
44312;PMS5003;38833;51.142;-0.974;2023-12-14T12:39:35;4;3;
44312;PMS5003;38833;51.142;-0.974;2023-12-14T12:42:08;9;4;
44312;PMS5003;38833;51.142;-0.974;2023-12-14T12:44:42;2;2;
44312;PMS5003;38833;51.142;-0.974;2023-12-14T12:47:16;3;3;
44312;PMS5003;38833;51.142;-0.974;2023-12-14T12:49:49;5;3;
44312;PMS5003;38833;51.142;-0.974;2023-12-14T12:52:23;3;3;
44312;PMS5003;38833;51.142;-0.974;2023-12-14T12:54:56;4;3;
44312;PMS5003;38833;51.142;-0.974;2023-12-14T12:57:29;5;3;
44312;PMS5003;38833;51.142;-0.974;2023-12-14T13:00:03;4;4;
44312;PMS5003;38833;51.142;-0.974;2023-12-14T13:02:38;3;2;
44312;PMS5003;38833;51.142;-0.974;2023-12-14T13:05:11;2;2;
44312;PMS5003;38833;51.142;-0.974;2023-12-14T13:07:45;6;4;
44312;PMS5003;38833;51.142;-0.974;2023-12-14T13:10:18;4;3;
44312;PMS5003;38833;51.142;-0.974;2023-12-14T13:12:52;2;2;
44312;PMS5003;38833;51.142;-0.974;2023-12-14T13:15:26;6;4;
44312;PMS5003;38833;51.142;-0.974;2023-12-14T13:18:00;6;5;
44312;PMS5003;38833;51.142;-0.974;2023-12-14T13:20:33;5;5;
44312;PMS5003;38833;51.142;-0.974;2023-12-14T13:23:07;4;4;
44312;PMS5003;38833;51.142;-0.974;2023-12-14T13:25:41;5;5;
44312;PMS5003;38833;51.142;-0.974;2023-12-14T13:28:14;6;6;
44312;PMS5003;38833;51.142;-0.974;2023-12-14T13:30:48;6;6;
44312;PMS5003;38833;51.142;-0.974;2023-12-14T13:33:21;9;9;
44312;PMS5003;38833;51.142;-0.974;2023-12-14T13:35:55;11;7;
44312;PMS5003;38833;51.142;-0.974;2023-12-14T13:38:28;13;12;
44312;PMS5003;38833;51.142;-0.974;2023-12-14T13:41:02;12;12;
44312;PMS5003;38833;51.142;-0.974;2023-12-14T13:43:35;11;11;
44312;PMS5003;38833;51.142;-0.974;2023-12-14T13:46:09;8;8;
44312;PMS5003;38833;51.142;-0.974;2023-12-14T13:48:42;2;2;
44312;PMS5003;38833;51.142;-0.974;2023-12-14T13:51:15;2;2;
44312;PMS5003;38833;51.142;-0.974;2023-12-14T13:53:49;3;3;
44312;PMS5003;38833;51.142;-0.974;2023-12-14T13:56:22;3;3;
44312;PMS5003;38833;51.142;-0.974;2023-12-14T13:58:55;6;6;
44312;PMS5003;38833;51.142;-0.974;2023-12-14T14:01:29;7;7;
44312;PMS5003;38833;51.142;-0.974;2023-12-14T14:04:02;10;10;
44312;PMS5003;38833;51.142;-0.974;2023-12-14T14:06:36;15;14;
44312;PMS5003;38833;51.142;-0.974;2023-12-14T14:09:09;14;14;
44312;PMS5003;38833;51.142;-0.974;2023-12-14T14:11:44;12;12;
44312;PMS5003;38833;51.142;-0.974;2023-12-14T14:14:17;14;14;
44312;PMS5003;38833;51.142;-0.974;2023-12-14T14:16:50;14;14;
44312;PMS5003;38833;51.142;-0.974;2023-12-14T14:19:24;17;17;
44312;PMS5003;38833;51.142;-0.974;2023-12-14T14:21:57;21;21;
44312;PMS5003;38833;51.142;-0.974;2023-12-14T14:24:30;28;28;
44312;PMS5003;38833;51.142;-0.974;2023-12-14T14:27:04;28;28;
44312;PMS5003;38833;51.142;-0.974;2023-12-14T14:29:37;35;32;
44312;PMS5003;38833;51.142;-0.974;2023-12-14T14:32:11;29;29;
44312;PMS5003;38833;51.142;-0.974;2023-12-14T14:34:44;29;29;
44312;PMS5003;38833;51.142;-0.974;2023-12-14T14:37:17;13;6;
44312;PMS5003;38833;51.142;-0.974;2023-12-14T14:39:51;18;17;
44312;PMS5003;38833;51.142;-0.974;2023-12-14T14:42:24;26;26;
44312;PMS5003;38833;51.142;-0.974;2023-12-14T14:44:57;24;24;
44312;PMS5003;38833;51.142;-0.974;2023-12-14T14:47:31;38;34;
44312;PMS5003;38833;51.142;-0.974;2023-12-14T14:50:05;38;36;
44312;PMS5003;38833;51.142;-0.974;2023-12-14T14:52:39;57;57;
44312;PMS5003;38833;51.142;-0.974;2023-12-14T14:55:12;15;8;
44312;PMS5003;38833;51.142;-0.974;2023-12-14T14:57:46;43;43;
44312;PMS5003;38833;51.142;-0.974;2023-12-14T15:00:19;46;46;
44312;PMS5003;38833;51.142;-0.974;2023-12-14T15:02:53;43;42;
44312;PMS5003;38833;51.142;-0.974;2023-12-14T15:05:26;51;51;
44312;PMS5003;38833;51.142;-0.974;2023-12-14T15:08:00;70;69;
44312;PMS5003;38833;51.142;-0.974;2023-12-14T15:10:34;54;54;
44312;PMS5003;38833;51.142;-0.974;2023-12-14T15:13:07;42;42;
44312;PMS5003;38833;51.142;-0.974;2023-12-14T15:15:40;54;54;
44312;PMS5003;38833;51.142;-0.974;2023-12-14T15:18:14;59;59;
44312;PMS5003;38833;51.142;-0.974;2023-12-14T15:20:47;33;33;
44312;PMS5003;38833;51.142;-0.974;2023-12-14T15:23:20;5;4;
44312;PMS5003;38833;51.142;-0.974;2023-12-14T15:25:54;4;2;
44312;PMS5003;38833;51.142;-0.974;2023-12-14T15:28:27;3;3;
44312;PMS5003;38833;51.142;-0.974;2023-12-14T15:31:00;1;1;
44312;PMS5003;38833;51.142;-0.974;2023-12-14T15:33:34;2;2;
44312;PMS5003;38833;51.142;-0.974;2023-12-14T15:36:08;2;2;
44312;PMS5003;38833;51.142;-0.974;2023-12-14T15:38:41;2;2;
44312;PMS5003;38833;51.142;-0.974;2023-12-14T15:41:15;3;3;
44312;PMS5003;38833;51.142;-0.974;2023-12-14T15:43:48;4;4;
44312;PMS5003;38833;51.142;-0.974;2023-12-14T15:46:21;2;2;
44312;PMS5003;38833;51.142;-0.974;2023-12-14T15:48:55;4;3;
44312;PMS5003;38833;51.142;-0.974;2023-12-14T15:51:28;3;3;
44312;PMS5003;38833;51.142;-0.974;2023-12-14T15:54:01;3;3;
44312;PMS5003;38833;51.142;-0.974;2023-12-14T15:56:35;2;2;
44312;PMS5003;38833;51.142;-0.974;2023-12-14T15:59:08;3;3;
44312;PMS5003;38833;51.142;-0.974;2023-12-14T16:01:41;2;2;
44312;PMS5003;38833;51.142;-0.974;2023-12-14T16:04:15;1;1;
44312;PMS5003;38833;51.142;-0.974;2023-12-14T16:06:48;3;3;
44312;PMS5003;38833;51.142;-0.974;2023-12-14T16:09:21;2;2;
44312;PMS5003;38833;51.142;-0.974;2023-12-14T16:11:55;1;1;
44312;PMS5003;38833;51.142;-0.974;2023-12-14T16:14:29;2;1;
44312;PMS5003;38833;51.142;-0.974;2023-12-14T16:17:03;2;2;
44312;PMS5003;38833;51.142;-0.974;2023-12-14T16:19:36;2;2;
44312;PMS5003;38833;51.142;-0.974;2023-12-14T16:22:09;2;2;
44312;PMS5003;38833;51.142;-0.974;2023-12-14T16:24:43;3;3;
44312;PMS5003;38833;51.142;-0.974;2023-12-14T16:27:17;1;1;
44312;PMS5003;38833;51.142;-0.974;2023-12-14T16:29:50;3;3;
44312;PMS5003;38833;51.142;-0.974;2023-12-14T16:32:23;3;1;
44312;PMS5003;38833;51.142;-0.974;2023-12-14T16:34:56;1;1;
44312;PMS5003;38833;51.142;-0.974;2023-12-14T16:37:30;4;2;
44312;PMS5003;38833;51.142;-0.974;2023-12-14T16:40:03;0;0;
44312;PMS5003;38833;51.142;-0.974;2023-12-14T16:42:37;2;2;
44312;PMS5003;38833;51.142;-0.974;2023-12-14T16:45:11;2;2;
44312;PMS5003;38833;51.142;-0.974;2023-12-14T16:47:44;1;1;
44312;PMS5003;38833;51.142;-0.974;2023-12-14T16:50:17;2;0;
44312;PMS5003;38833;51.142;-0.974;2023-12-14T16:52:51;2;2;
44312;PMS5003;38833;51.142;-0.974;2023-12-14T16:55:24;1;1;
44312;PMS5003;38833;51.142;-0.974;2023-12-14T16:57:57;4;2;
44312;PMS5003;38833;51.142;-0.974;2023-12-14T17:00:31;1;1;
44312;PMS5003;38833;51.142;-0.974;2023-12-14T17:03:04;2;2;
44312;PMS5003;38833;51.142;-0.974;2023-12-14T17:05:38;2;2;
44312;PMS5003;38833;51.142;-0.974;2023-12-14T17:08:11;1;1;